Time;durP1;ratioP1;P1;durP2;ratioP2;P2;SDS_P1;SDS_P2;PMS_P1;PMS_P2;Temp;Humidity;BMP_temperature;BMP_pressure;BME280_temperature;BME280_humidity;BME280_pressure;Samples;Min_cycle;Max_cycle;Signal;HPM_P1;HPM_P2
2023/06/24 00:01:23;;;;;;;10.05;8.20;;;18.10;99.90;;;;;;5032468;28;20211;-61
2023/06/24 00:03:52;;;;;;;10.73;9.10;;;18.00;99.90;;;;;;5032547;28;20184;-62
2023/06/24 00:06:19;;;;;;;10.70;9.55;;;18.00;99.90;;;;;;5032710;28;20708;-62
2023/06/24 00:08:50;;;;;;;11.73;9.75;;;18.10;99.90;;;;;;5036052;28;20172;-61
2023/06/24 00:11:16;;;;;;;10.85;9.75;;;18.10;99.90;;;;;;5036172;28;20180;-62
2023/06/24 00:13:43;;;;;;;10.85;9.40;;;18.10;99.90;;;;;;5036098;28;20215;-61
2023/06/24 00:16:09;;;;;;;11.90;10.07;;;18.10;99.90;;;;;;5036039;28;20246;-61
2023/06/24 00:18:36;;;;;;;9.95;8.98;;;17.90;99.90;;;;;;5035760;28;20228;-61
2023/06/24 00:21:02;;;;;;;12.40;9.88;;;17.80;99.90;;;;;;5036018;28;20211;-61
2023/06/24 00:23:30;;;;;;;10.85;9.75;;;17.80;99.90;;;;;;5036009;28;20191;-61
2023/06/24 00:25:56;;;;;;;10.90;9.80;;;17.90;99.90;;;;;;5035936;28;20172;-61
2023/06/24 00:28:22;;;;;;;11.02;9.40;;;17.90;99.90;;;;;;5035849;28;20227;-61
2023/06/24 00:30:48;;;;;;;10.20;9.30;;;17.90;99.90;;;;;;5036014;28;20188;-61
2023/06/24 00:33:15;;;;;;;12.00;9.80;;;17.90;99.90;;;;;;5035538;28;20211;-61
2023/06/24 00:35:41;;;;;;;10.23;9.13;;;17.90;99.90;;;;;;5035797;28;20176;-61
2023/06/24 00:38:07;;;;;;;10.43;9.20;;;17.90;99.90;;;;;;5035543;28;20173;-61
2023/06/24 00:40:33;;;;;;;10.15;9.05;;;17.70;99.90;;;;;;5035572;28;20506;-61
2023/06/24 00:43:01;;;;;;;10.05;9.05;;;17.60;99.90;;;;;;5035544;28;20214;-61
2023/06/24 00:45:27;;;;;;;10.45;9.35;;;17.70;99.90;;;;;;5035361;28;20187;-61
2023/06/24 00:47:54;;;;;;;10.52;9.45;;;17.70;99.90;;;;;;5035334;28;20602;-61
2023/06/24 00:50:20;;;;;;;10.13;9.00;;;17.80;99.90;;;;;;5035480;28;20549;-61
2023/06/24 00:52:45;;;;;;;10.23;8.77;;;17.80;99.90;;;;;;5035454;28;20172;-61
2023/06/24 00:55:13;;;;;;;10.05;8.68;;;17.60;99.90;;;;;;5035666;28;20579;-61
2023/06/24 00:57:43;;;;;;;9.93;8.82;;;17.50;99.90;;;;;;5035281;28;20199;-61
2023/06/24 01:00:14;;;;;;;9.13;8.27;;;17.50;99.90;;;;;;5035118;28;20172;-61
2023/06/24 01:02:42;;;;;;;9.25;8.25;;;17.50;99.90;;;;;;5035253;28;20207;-61
2023/06/24 01:05:08;;;;;;;9.90;8.88;;;17.50;99.90;;;;;;5034979;28;20633;-61
2023/06/24 01:07:36;;;;;;;8.52;7.70;;;17.60;99.90;;;;;;5035153;28;20168;-61
2023/06/24 01:10:07;;;;;;;8.05;7.30;;;17.40;99.90;;;;;;5035146;28;20200;-61
2023/06/24 01:12:43;;;;;;;8.98;8.07;;;17.30;99.90;;;;;;5034869;28;20259;-61
2023/06/24 01:15:11;;;;;;;10.75;8.02;;;17.20;99.90;;;;;;5035151;28;20282;-61
2023/06/24 01:18:00;;;;;;;8.45;7.55;;;17.10;99.90;;;;;;5034760;28;20723;-61
2023/06/24 01:20:48;;;;;;;8.13;7.32;;;17.00;99.90;;;;;;5034139;28;20729;-61
2023/06/24 01:23:33;;;;;;;8.52;7.57;;;16.90;99.90;;;;;;5034651;28;20175;-61
2023/06/24 01:26:20;;;;;;;8.60;7.45;;;16.90;99.90;;;;;;5034788;28;20176;-61
2023/06/24 01:28:59;;;;;;;7.65;6.90;;;16.90;99.90;;;;;;5034649;28;20216;-61
2023/06/24 01:32:02;;;;;;;9.10;6.55;;;16.80;99.90;;;;;;5034561;28;20190;-61
2023/06/24 01:34:40;;;;;;;7.15;6.50;;;16.80;99.90;;;;;;5034657;28;20199;-61
2023/06/24 01:37:43;;;;;;;7.97;6.88;;;16.80;99.90;;;;;;5034833;28;20168;-61
2023/06/24 01:40:26;;;;;;;8.52;6.72;;;16.90;99.90;;;;;;5021215;28;20194;-61
2023/06/24 01:42:53;;;;;;;8.15;6.88;;;16.90;99.90;;;;;;5034586;28;20187;-61
2023/06/24 01:45:42;;;;;;;7.10;6.50;;;16.90;99.90;;;;;;5034375;28;20192;-60
2023/06/24 01:48:14;;;;;;;6.45;5.85;;;16.80;99.90;;;;;;5034212;28;20168;-61
2023/06/24 01:50:48;;;;;;;6.88;6.15;;;16.80;99.90;;;;;;5034481;28;20271;-61
2023/06/24 01:53:16;;;;;;;7.38;5.65;;;16.90;99.90;;;;;;5034345;28;20655;-61
2023/06/24 01:55:43;;;;;;;6.25;5.18;;;16.80;99.90;;;;;;5034059;28;20173;-61
2023/06/24 01:58:11;;;;;;;6.38;5.78;;;16.70;99.90;;;;;;5034116;28;20186;-61
2023/06/24 02:00:37;;;;;;;6.00;5.50;;;16.60;99.90;;;;;;5034121;28;20218;-61
2023/06/24 02:03:06;;;;;;;6.43;5.18;;;16.50;99.90;;;;;;5033930;28;20187;-61
2023/06/24 02:05:33;;;;;;;6.70;5.40;;;16.50;99.90;;;;;;5034069;28;20164;-61
2023/06/24 02:08:01;;;;;;;6.55;5.35;;;16.60;99.90;;;;;;5033843;28;20258;-61
2023/06/24 02:10:28;;;;;;;6.25;5.65;;;16.40;99.90;;;;;;5033892;28;20207;-61
2023/06/24 02:12:55;;;;;;;6.38;5.25;;;16.50;99.90;;;;;;5033805;28;20184;-61
2023/06/24 02:15:22;;;;;;;5.47;4.93;;;16.50;99.90;;;;;;5033659;28;20188;-61
2023/06/24 02:17:51;;;;;;;5.90;5.30;;;16.50;99.90;;;;;;5033893;28;20262;-61
2023/06/24 02:20:19;;;;;;;5.50;4.90;;;16.50;99.90;;;;;;5033918;28;20183;-61
2023/06/24 02:22:45;;;;;;;5.47;4.97;;;16.50;99.90;;;;;;5033754;28;20203;-61
2023/06/24 02:25:12;;;;;;;5.53;5.00;;;16.50;99.90;;;;;;5033610;28;20184;-61
2023/06/24 02:27:38;;;;;;;5.60;5.00;;;16.50;99.90;;;;;;5033508;28;20269;-61
2023/06/24 02:30:06;;;;;;;5.63;5.13;;;16.50;99.90;;;;;;5033498;28;20180;-61
2023/06/24 02:32:32;;;;;;;5.07;4.57;;;16.50;99.90;;;;;;5033639;28;20234;-61
2023/06/24 02:34:59;;;;;;;5.50;4.95;;;16.30;99.90;;;;;;5033656;28;20184;-61
2023/06/24 02:37:24;;;;;;;5.43;4.93;;;16.30;99.90;;;;;;5033576;28;20188;-61
2023/06/24 02:39:50;;;;;;;6.07;5.38;;;16.30;99.90;;;;;;5033454;28;20270;-61
2023/06/24 02:42:16;;;;;;;6.70;5.00;;;16.30;99.90;;;;;;5033344;28;20254;-61
2023/06/24 02:44:42;;;;;;;6.05;5.00;;;16.30;99.90;;;;;;5033241;28;20183;-61
2023/06/24 02:47:12;;;;;;;5.75;5.15;;;16.40;99.90;;;;;;5033419;28;20176;-61
2023/06/24 02:49:39;;;;;;;5.90;4.97;;;16.30;99.90;;;;;;5033440;28;20287;-61
2023/06/24 02:52:06;;;;;;;6.15;5.22;;;16.20;99.90;;;;;;5033350;28;20172;-61
2023/06/24 02:54:32;;;;;;;6.78;5.50;;;16.20;99.90;;;;;;5033234;28;20539;-61
2023/06/24 02:56:59;;;;;;;5.53;5.03;;;16.20;99.90;;;;;;5033203;28;20242;-61
2023/06/24 02:59:25;;;;;;;5.25;4.75;;;16.10;99.90;;;;;;5033397;28;20180;-61
2023/06/24 03:01:51;;;;;;;6.47;5.35;;;16.00;99.90;;;;;;5015777;28;20261;-61
2023/06/24 03:04:19;;;;;;;5.47;4.97;;;16.00;99.90;;;;;;5033264;28;20187;-61
2023/06/24 03:06:46;;;;;;;6.07;5.25;;;16.00;99.90;;;;;;5033417;28;20164;-61
2023/06/24 03:09:12;;;;;;;5.60;5.10;;;15.90;99.90;;;;;;5033127;28;20183;-61
2023/06/24 03:11:43;;;;;;;6.35;5.40;;;16.00;99.90;;;;;;5033269;28;20215;-61
2023/06/24 03:14:11;;;;;;;7.05;5.28;;;15.90;99.90;;;;;;5033259;28;20172;-61
2023/06/24 03:16:38;;;;;;;6.22;5.30;;;16.00;99.90;;;;;;5033195;28;20203;-61
2023/06/24 03:19:04;;;;;;;6.05;5.45;;;16.00;99.90;;;;;;5033008;28;20223;-61
2023/06/24 03:21:30;;;;;;;6.15;5.55;;;16.00;99.90;;;;;;5032936;28;20195;-61
2023/06/24 03:23:56;;;;;;;5.93;5.38;;;16.10;99.90;;;;;;5033035;28;20695;-60
2023/06/24 03:26:22;;;;;;;5.50;5.00;;;15.90;99.90;;;;;;5032935;28;20179;-60
2023/06/24 03:28:48;;;;;;;5.95;5.35;;;15.90;99.90;;;;;;5033112;28;20184;-61
2023/06/24 03:31:17;;;;;;;5.55;5.05;;;15.80;99.90;;;;;;5032954;28;20176;-60
2023/06/24 03:33:46;;;;;;;6.07;5.18;;;15.90;99.90;;;;;;5032826;28;20692;-61
2023/06/24 03:36:12;;;;;;;6.47;5.38;;;15.80;99.90;;;;;;5032922;28;20258;-61
2023/06/24 03:38:38;;;;;;;6.22;5.63;;;15.80;99.90;;;;;;5032842;28;20184;-61
2023/06/24 03:41:04;;;;;;;7.82;6.97;;;15.90;99.90;;;;;;5032772;28;20211;-61
2023/06/24 03:43:29;;;;;;;6.47;5.70;;;15.80;99.90;;;;;;5036393;28;20533;-61
2023/06/24 03:45:55;;;;;;;6.00;5.40;;;15.80;99.90;;;;;;5036615;28;20187;-61
2023/06/24 03:48:20;;;;;;;6.85;5.93;;;15.90;99.90;;;;;;5036636;28;20287;-61
2023/06/24 03:50:46;;;;;;;5.93;5.22;;;15.90;99.90;;;;;;5036801;28;20176;-61
2023/06/24 03:53:12;;;;;;;6.40;5.80;;;15.80;99.90;;;;;;5036430;28;20713;-61
2023/06/24 03:55:37;;;;;;;6.28;5.22;;;15.90;99.90;;;;;;5036325;28;20184;-61
2023/06/24 03:58:03;;;;;;;7.10;5.50;;;15.90;99.90;;;;;;5036584;28;20656;-61
2023/06/24 04:00:29;;;;;;;6.65;5.55;;;16.00;99.90;;;;;;5036483;28;20176;-61
2023/06/24 04:02:54;;;;;;;8.38;5.40;;;16.00;99.90;;;;;;5018574;28;20211;-61
2023/06/24 04:05:21;;;;;;;6.07;5.57;;;16.00;99.90;;;;;;5036348;28;20677;-61
2023/06/24 04:07:47;;;;;;;7.00;5.78;;;16.00;99.90;;;;;;5036323;28;20195;-61
2023/06/24 04:10:13;;;;;;;6.32;5.68;;;16.10;99.90;;;;;;5036100;28;20234;-61
2023/06/24 04:12:38;;;;;;;6.90;5.57;;;16.10;99.90;;;;;;5036281;28;20179;-61
2023/06/24 04:15:05;;;;;;;6.68;5.47;;;16.10;99.90;;;;;;5036315;28;20575;-61
2023/06/24 04:17:31;;;;;;;5.72;4.82;;;16.10;99.90;;;;;;5036078;28;20228;-61
2023/06/24 04:19:58;;;;;;;6.45;5.20;;;16.20;99.90;;;;;;5036016;28;20172;-61
2023/06/24 04:22:24;;;;;;;6.78;5.70;;;16.20;99.90;;;;;;5035911;28;20718;-61
2023/06/24 04:24:50;;;;;;;6.00;5.40;;;16.10;99.90;;;;;;5035734;28;20188;-61
2023/06/24 04:27:16;;;;;;;6.07;5.53;;;16.20;99.90;;;;;;5035737;28;20176;-61
2023/06/24 04:29:41;;;;;;;5.93;5.10;;;16.20;99.90;;;;;;5035774;28;20176;-61
2023/06/24 04:32:07;;;;;;;5.68;5.05;;;16.20;99.90;;;;;;5035852;28;20267;-61
2023/06/24 04:34:33;;;;;;;7.07;5.53;;;16.30;99.90;;;;;;5035610;28;20526;-61
2023/06/24 04:36:59;;;;;;;5.63;5.13;;;16.30;99.90;;;;;;5035837;28;20183;-61
2023/06/24 04:39:24;;;;;;;6.35;4.85;;;16.30;99.90;;;;;;5035932;28;20183;-61
2023/06/24 04:41:50;;;;;;;6.00;5.38;;;16.40;99.90;;;;;;5035765;28;20208;-61
2023/06/24 04:44:15;;;;;;;7.18;5.38;;;16.40;99.90;;;;;;5035847;28;20529;-61
2023/06/24 04:46:41;;;;;;;5.65;5.15;;;16.40;99.90;;;;;;5035716;28;20586;-61
2023/06/24 04:49:07;;;;;;;6.95;5.20;;;16.50;99.90;;;;;;5035422;28;20180;-61
2023/06/24 04:51:33;;;;;;;5.82;5.32;;;16.60;99.90;;;;;;5035447;28;20230;-60
2023/06/24 04:53:59;;;;;;;6.07;4.97;;;16.70;99.90;;;;;;5034093;28;20262;-61
2023/06/24 04:56:25;;;;;;;6.07;5.10;;;16.70;99.90;;;;;;5035517;28;20207;-61
2023/06/24 04:58:51;;;;;;;7.70;5.28;;;16.60;99.90;;;;;;5035386;28;20622;-61
2023/06/24 05:01:17;;;;;;;5.90;5.30;;;16.70;99.90;;;;;;5035289;28;20196;-61
2023/06/24 05:03:43;;;;;;;6.82;5.40;;;16.80;99.90;;;;;;5035101;28;20176;-60
2023/06/24 05:06:09;;;;;;;7.68;5.20;;;16.90;99.90;;;;;;5035122;28;20269;-61
2023/06/24 05:08:34;;;;;;;7.07;5.32;;;16.80;99.90;;;;;;5035049;28;20172;-61
2023/06/24 05:11:00;;;;;;;5.68;5.18;;;16.80;99.90;;;;;;5035111;28;20250;-61
2023/06/24 05:13:27;;;;;;;6.03;5.25;;;16.90;99.90;;;;;;5034886;28;20167;-60
2023/06/24 05:15:53;;;;;;;7.55;5.38;;;17.00;99.90;;;;;;5034834;28;20225;-60
2023/06/24 05:18:19;;;;;;;6.22;5.63;;;17.10;99.90;;;;;;5034827;28;20220;-61
2023/06/24 05:20:44;;;;;;;5.07;4.68;;;17.20;99.90;;;;;;5034756;28;20269;-60
2023/06/24 05:23:10;;;;;;;6.60;4.75;;;17.20;99.90;;;;;;5034038;28;20187;-61
2023/06/24 05:25:35;;;;;;;8.07;5.30;;;17.30;99.90;;;;;;5034980;28;20176;-60
2023/06/24 05:28:01;;;;;;;5.85;5.22;;;17.30;99.90;;;;;;5034917;28;20180;-60
2023/06/24 05:30:27;;;;;;;6.40;5.18;;;17.40;99.90;;;;;;5035025;28;20180;-60
2023/06/24 05:32:52;;;;;;;7.75;5.10;;;17.50;99.90;;;;;;5044452;28;20542;-60
2023/06/24 05:35:18;;;;;;;7.03;5.35;;;17.50;99.90;;;;;;5043254;28;20184;-60
2023/06/24 05:37:43;;;;;;;5.65;5.03;;;17.60;99.90;;;;;;5044853;28;20171;-60
2023/06/24 05:40:10;;;;;;;5.63;4.93;;;17.70;99.90;;;;;;5043971;28;20202;-60
2023/06/24 05:42:36;;;;;;;6.00;5.22;;;17.60;99.90;;;;;;5040460;28;20278;-60
2023/06/24 05:45:01;;;;;;;5.85;5.25;;;17.80;99.90;;;;;;5013071;28;20227;-60
2023/06/24 05:47:27;;;;;;;5.78;5.25;;;17.80;99.90;;;;;;5034235;28;20537;-60
2023/06/24 05:49:53;;;;;;;5.80;5.30;;;17.90;99.90;;;;;;5034267;28;20179;-60
2023/06/24 05:52:18;;;;;;;6.07;5.32;;;17.90;99.90;;;;;;5034091;28;20188;-60
2023/06/24 05:54:44;;;;;;;6.00;4.85;;;18.10;99.90;;;;;;5034339;28;20176;-61
2023/06/24 05:57:10;;;;;;;5.72;5.22;;;18.20;99.90;;;;;;5034235;28;20172;-60
2023/06/24 05:59:36;;;;;;;6.13;5.50;;;18.30;99.90;;;;;;5034193;28;20231;-60
2023/06/24 06:02:01;;;;;;;5.75;5.25;;;18.40;99.90;;;;;;5034024;28;20687;-60
2023/06/24 06:04:30;;;;;;;6.30;5.70;;;18.50;99.90;;;;;;5030979;28;20191;-60
2023/06/24 06:06:56;;;;;;;6.30;5.43;;;18.60;99.90;;;;;;5036453;28;20184;-60
2023/06/24 06:09:22;;;;;;;6.30;5.22;;;18.50;99.90;;;;;;5033783;28;20198;-60
2023/06/24 06:11:48;;;;;;;6.43;5.50;;;18.60;99.90;;;;;;5033628;28;20180;-60
2023/06/24 06:14:14;;;;;;;6.30;5.50;;;18.70;99.90;;;;;;5033683;28;20176;-60
2023/06/24 06:16:39;;;;;;;6.93;6.03;;;18.80;99.90;;;;;;5033590;28;20168;-60
2023/06/24 06:19:05;;;;;;;5.97;5.47;;;18.80;99.90;;;;;;5031893;28;20210;-60
2023/06/24 06:21:31;;;;;;;6.40;5.80;;;18.90;99.90;;;;;;5031717;28;20319;-60
2023/06/24 06:23:57;;;;;;;7.32;6.38;;;18.90;99.90;;;;;;5033645;28;20203;-60
2023/06/24 06:26:23;;;;;;;6.50;5.90;;;19.00;99.90;;;;;;5033342;28;20589;-60
2023/06/24 06:28:48;;;;;;;6.70;6.10;;;19.10;99.90;;;;;;5033179;28;20207;-60
2023/06/24 06:31:14;;;;;;;7.25;6.38;;;19.20;99.90;;;;;;5033524;28;20207;-60
2023/06/24 06:33:40;;;;;;;6.85;6.15;;;19.30;99.90;;;;;;5033521;28;20657;-60
2023/06/24 06:36:06;;;;;;;9.15;6.80;;;19.30;99.90;;;;;;5033253;28;20176;-60
2023/06/24 06:38:33;;;;;;;8.85;6.85;;;19.40;99.90;;;;;;5033323;28;20183;-59
2023/06/24 06:40:59;;;;;;;7.13;6.35;;;19.40;99.90;;;;;;5033449;28;20204;-60
2023/06/24 06:43:25;;;;;;;7.50;6.40;;;19.60;99.90;;;;;;5033463;28;20182;-60
2023/06/24 06:45:50;;;;;;;8.07;7.20;;;19.60;99.90;;;;;;5033469;28;20180;-60
2023/06/24 06:48:16;;;;;;;7.22;6.28;;;19.60;99.90;;;;;;5033301;28;20195;-60
2023/06/24 06:50:42;;;;;;;7.93;7.00;;;19.90;99.90;;;;;;5033112;28;20274;-60
2023/06/24 06:53:07;;;;;;;6.95;6.30;;;20.10;99.90;;;;;;5033502;28;20176;-60
2023/06/24 06:55:33;;;;;;;8.07;7.05;;;20.20;99.90;;;;;;5033409;28;20231;-60
2023/06/24 06:57:58;;;;;;;9.23;7.18;;;20.20;99.90;;;;;;5033346;28;20704;-61
2023/06/24 07:00:24;;;;;;;7.60;6.82;;;20.20;99.90;;;;;;5033173;28;20183;-60
2023/06/24 07:02:50;;;;;;;9.85;7.82;;;20.30;99.90;;;;;;5032808;28;20567;-60
2023/06/24 07:05:15;;;;;;;9.18;6.75;;;20.30;99.90;;;;;;5039601;28;20190;-61
2023/06/24 07:07:43;;;;;;;7.85;7.05;;;20.40;99.90;;;;;;5052784;28;20167;-61
2023/06/24 07:10:09;;;;;;;8.25;6.90;;;20.40;99.90;;;;;;5052840;28;20636;-60
2023/06/24 07:12:35;;;;;;;7.25;6.55;;;20.40;99.90;;;;;;5031870;28;20294;-60
2023/06/24 07:15:00;;;;;;;7.78;7.07;;;20.70;99.90;;;;;;5052074;28;20263;-61
2023/06/24 07:17:26;;;;;;;8.20;7.40;;;20.80;99.90;;;;;;5054273;28;20222;-60
2023/06/24 07:19:52;;;;;;;8.25;6.85;;;20.90;99.90;;;;;;5056812;28;20179;-60
2023/06/24 07:22:17;;;;;;;8.27;7.40;;;21.00;99.90;;;;;;5049550;28;20603;-60
2023/06/24 07:24:43;;;;;;;7.63;6.82;;;21.20;99.90;;;;;;5036963;28;20172;-61
2023/06/24 07:27:09;;;;;;;7.18;6.47;;;21.30;99.90;;;;;;5036769;28;20175;-61
2023/06/24 07:29:35;;;;;;;7.68;6.90;;;21.30;99.90;;;;;;5047893;28;20175;-61
2023/06/24 07:32:01;;;;;;;7.57;6.78;;;21.50;99.90;;;;;;5044937;28;20645;-61
2023/06/24 07:34:26;;;;;;;7.40;6.70;;;21.50;99.90;;;;;;5045785;28;20187;-61
2023/06/24 07:36:52;;;;;;;8.60;6.70;;;21.70;99.90;;;;;;5049654;28;20195;-61
2023/06/24 07:39:18;;;;;;;7.43;6.75;;;21.70;99.90;;;;;;5052655;28;20220;-61
2023/06/24 07:41:43;;;;;;;7.78;7.07;;;21.80;99.90;;;;;;5046887;28;20258;-61
2023/06/24 07:44:09;;;;;;;7.78;7.07;;;21.60;99.90;;;;;;5036570;28;20206;-61
2023/06/24 07:46:35;;;;;;;8.75;6.90;;;21.80;99.90;;;;;;5036341;28;20176;-61
2023/06/24 07:49:01;;;;;;;8.25;7.22;;;22.00;99.90;;;;;;5036275;28;20625;-60
2023/06/24 07:51:27;;;;;;;8.13;7.10;;;22.10;99.90;;;;;;5036267;28;20188;-61
2023/06/24 07:53:53;;;;;;;6.93;6.20;;;22.00;99.90;;;;;;5036729;28;20183;-61
2023/06/24 07:56:18;;;;;;;9.07;6.40;;;22.10;99.90;;;;;;5036789;28;20188;-60
2023/06/24 07:58:44;;;;;;;8.43;6.40;;;22.30;99.90;;;;;;5056266;28;20544;-61
2023/06/24 08:01:10;;;;;;;6.00;5.30;;;22.40;99.90;;;;;;5055984;28;20207;-61
2023/06/24 08:03:37;;;;;;;6.32;5.57;;;22.60;99.90;;;;;;5056026;28;20194;-62
2023/06/24 08:06:03;;;;;;;5.85;5.35;;;22.70;99.90;;;;;;5043145;28;20176;-61
2023/06/24 08:08:28;;;;;;;6.57;4.85;;;22.70;99.90;;;;;;5040711;28;20220;-61
2023/06/24 08:10:54;;;;;;;8.13;6.28;;;23.00;99.90;;;;;;5035955;28;20250;-61
2023/06/24 08:13:20;;;;;;;7.30;5.65;;;23.20;99.90;;;;;;5035990;28;20191;-61
2023/06/24 08:15:46;;;;;;;8.38;5.60;;;23.10;99.90;;;;;;5036014;28;20180;-61
2023/06/24 08:18:12;;;;;;;7.18;4.95;;;23.20;99.90;;;;;;5035590;28;20255;-61
2023/06/24 08:20:37;;;;;;;10.00;5.60;;;23.30;99.90;;;;;;5035749;28;20172;-62
2023/06/24 08:23:03;;;;;;;6.13;4.60;;;23.30;99.90;;;;;;5035673;28;20223;-61
2023/06/24 08:25:28;;;;;;;5.05;4.50;;;23.50;99.90;;;;;;5036070;28;20696;-62
2023/06/24 08:27:54;;;;;;;5.72;4.65;;;23.60;99.90;;;;;;5035731;28;20569;-61
2023/06/24 08:30:20;;;;;;;6.65;4.60;;;23.70;99.90;;;;;;5035447;28;20180;-62
2023/06/24 08:32:45;;;;;;;6.53;4.30;;;23.90;99.90;;;;;;5035027;28;20263;-62
2023/06/24 08:35:11;;;;;;;5.90;4.53;;;24.20;99.90;;;;;;5035551;28;20203;-62
2023/06/24 08:37:37;;;;;;;4.68;3.90;;;24.20;99.90;;;;;;5035850;28;20226;-62
2023/06/24 08:40:06;;;;;;;4.93;4.43;;;24.10;99.90;;;;;;5035777;28;20187;-62
2023/06/24 08:42:32;;;;;;;5.30;4.35;;;24.00;99.90;;;;;;5035574;28;20222;-62
2023/06/24 08:44:58;;;;;;;5.18;4.65;;;24.00;99.90;;;;;;5035510;28;20188;-62
2023/06/24 08:47:29;;;;;;;5.93;4.60;;;24.20;99.90;;;;;;5035484;28;20203;-62
2023/06/24 08:50:04;;;;;;;6.97;4.65;;;24.40;99.90;;;;;;5035355;28;20719;-62
2023/06/24 08:52:33;;;;;;;4.72;3.95;;;24.50;99.90;;;;;;5035356;28;20182;-62
2023/06/24 08:55:00;;;;;;;5.13;4.63;;;24.70;99.90;;;;;;5035632;28;20207;-62
2023/06/24 08:57:26;;;;;;;5.05;4.13;;;24.80;99.90;;;;;;5035388;28;20172;-62
2023/06/24 08:59:53;;;;;;;7.32;4.60;;;24.90;99.90;;;;;;5017594;28;20221;-62
2023/06/24 09:02:19;;;;;;;5.32;4.82;;;25.10;99.90;;;;;;5035044;28;20249;-62
2023/06/24 09:04:45;;;;;;;6.20;4.68;;;25.00;99.90;;;;;;5035567;28;20187;-62
2023/06/24 09:07:11;;;;;;;6.68;4.13;;;25.00;99.90;;;;;;5035330;28;20172;-62
2023/06/24 09:09:44;;;;;;;4.07;3.65;;;25.30;99.90;;;;;;5035098;28;20180;-62
2023/06/24 09:12:14;;;;;;;5.25;3.95;;;25.20;99.90;;;;;;5035228;28;20171;-62
2023/06/24 09:14:40;;;;;;;4.15;3.75;;;25.40;99.90;;;;;;5035066;28;20176;-62
2023/06/24 09:17:09;;;;;;;5.53;3.92;;;25.30;99.90;;;;;;5034918;28;20232;-62
2023/06/24 09:19:36;;;;;;;5.20;3.70;;;25.60;99.90;;;;;;5035144;28;20172;-62
2023/06/24 09:22:03;;;;;;;4.10;3.67;;;25.50;99.90;;;;;;5035030;28;20222;-62
2023/06/24 09:24:36;;;;;;;7.18;3.92;;;25.50;99.90;;;;;;5035051;28;20211;-62
2023/06/24 09:27:03;;;;;;;6.50;3.70;;;25.60;99.90;;;;;;5034765;28;20180;-62
2023/06/24 09:29:33;;;;;;;3.30;2.95;;;25.90;99.90;;;;;;5034646;28;20199;-62
2023/06/24 09:31:59;;;;;;;4.15;2.90;;;25.90;99.90;;;;;;5034879;28;20180;-62
2023/06/24 09:34:26;;;;;;;3.88;2.88;;;25.90;99.90;;;;;;5034810;28;20595;-62
2023/06/24 09:36:54;;;;;;;4.82;3.20;;;26.10;99.90;;;;;;5034637;28;20172;-62
2023/06/24 09:39:30;;;;;;;3.53;3.00;;;26.00;99.90;;;;;;5034304;28;20506;-62
2023/06/24 09:41:56;;;;;;;3.75;2.50;;;26.00;99.90;;;;;;5034413;28;20242;-62
2023/06/24 09:44:23;;;;;;;3.58;2.63;;;26.20;99.90;;;;;;5034603;28;20675;-62
2023/06/24 09:46:48;;;;;;;2.83;2.53;;;26.00;99.90;;;;;;5034581;28;20180;-62
2023/06/24 09:49:14;;;;;;;3.05;2.33;;;26.20;99.90;;;;;;5034392;28;20180;-62
2023/06/24 09:51:44;;;;;;;2.80;2.28;;;26.20;99.90;;;;;;5034324;28;20589;-62
2023/06/24 09:54:12;;;;;;;2.72;2.50;;;26.50;99.90;;;;;;5034291;28;20172;-62
2023/06/24 09:56:42;;;;;;;3.90;2.60;;;26.50;99.90;;;;;;5034111;28;20194;-61
2023/06/24 09:59:08;;;;;;;4.47;2.55;;;26.70;99.90;;;;;;5034854;28;20175;-62
2023/06/24 10:01:38;;;;;;;2.42;2.22;;;26.70;99.90;;;;;;5034136;28;20557;-61
2023/06/24 10:04:07;;;;;;;2.97;2.42;;;26.60;99.50;;;;;;5034320;28;20168;-62
2023/06/24 10:06:34;;;;;;;3.63;2.00;;;26.80;99.90;;;;;;5034080;28;20633;-62
2023/06/24 10:09:00;;;;;;;2.33;2.13;;;26.80;99.90;;;;;;5033850;28;20499;-62
2023/06/24 10:11:26;;;;;;;4.57;2.20;;;26.90;99.90;;;;;;5034172;28;20203;-62
2023/06/24 10:13:52;;;;;;;2.85;2.10;;;26.90;99.90;;;;;;5034119;28;20258;-62
2023/06/24 10:16:18;;;;;;;3.28;1.83;;;26.90;96.80;;;;;;5033862;28;20307;-62
2023/06/24 10:18:45;;;;;;;3.15;1.92;;;27.00;98.40;;;;;;5033676;28;20574;-62
2023/06/24 10:21:11;;;;;;;2.95;2.13;;;27.20;98.10;;;;;;5033744;28;20203;-62
2023/06/24 10:23:41;;;;;;;2.28;2.08;;;27.20;98.30;;;;;;5033670;28;20234;-62
2023/06/24 10:26:17;;;;;;;2.20;1.92;;;27.20;98.40;;;;;;5033625;28;20699;-62
2023/06/24 10:29:05;;;;;;;2.80;2.10;;;27.40;98.90;;;;;;5015500;28;20187;-62
2023/06/24 10:31:39;;;;;;;3.05;2.17;;;27.20;97.50;;;;;;5033614;28;20180;-62
2023/06/24 10:34:26;;;;;;;2.53;2.05;;;27.10;97.60;;;;;;5033498;28;20191;-62
2023/06/24 10:37:01;;;;;;;2.20;1.95;;;27.40;98.70;;;;;;5033450;28;20303;-62
2023/06/24 10:39:48;;;;;;;3.50;2.28;;;27.70;98.80;;;;;;5033373;28;20175;-62
2023/06/24 10:42:39;;;;;;;3.58;2.05;;;27.80;99.00;;;;;;5032999;28;20195;-62
2023/06/24 10:45:10;;;;;;;4.00;1.90;;;27.70;97.50;;;;;;5033476;28;20179;-62
2023/06/24 10:47:41;;;;;;;2.30;1.80;;;27.60;97.30;;;;;;5033383;28;20207;-62
2023/06/24 10:50:08;;;;;;;1.95;1.75;;;27.70;97.70;;;;;;5033349;28;20542;-62
2023/06/24 10:52:39;;;;;;;4.10;1.80;;;27.90;99.40;;;;;;5030709;28;20175;-62
2023/06/24 10:55:05;;;;;;;2.67;1.50;;;27.80;97.60;;;;;;5032767;28;20180;-62
2023/06/24 10:57:30;;;;;;;1.60;1.50;;;28.00;97.50;;;;;;5032966;28;20176;-62
2023/06/24 10:59:57;;;;;;;2.53;1.65;;;28.00;98.40;;;;;;5033274;28;20249;-62
2023/06/24 11:02:27;;;;;;;1.90;1.73;;;28.00;97.70;;;;;;5033185;28;20208;-62
2023/06/24 11:04:58;;;;;;;2.53;1.70;;;28.00;96.60;;;;;;5033323;28;20168;-62
2023/06/24 11:07:25;;;;;;;3.63;1.77;;;28.00;97.40;;;;;;5033065;28;20194;-62
2023/06/24 11:09:56;;;;;;;2.15;1.30;;;27.80;95.50;;;;;;5033313;28;20527;-62
2023/06/24 11:12:26;;;;;;;2.00;1.77;;;27.90;96.30;;;;;;5033366;28;20184;-62
2023/06/24 11:14:55;;;;;;;1.48;1.38;;;27.90;95.70;;;;;;5033034;28;20533;-64
2023/06/24 11:17:20;;;;;;;2.55;1.65;;;28.00;96.50;;;;;;5033216;28;20223;-62
2023/06/24 11:19:46;;;;;;;1.50;1.40;;;27.90;96.70;;;;;;5032808;28;20187;-62
2023/06/24 11:22:12;;;;;;;2.15;1.42;;;27.90;96.90;;;;;;5015039;28;20199;-62
2023/06/24 11:24:39;;;;;;;3.90;1.88;;;28.10;96.20;;;;;;5033155;28;20771;-62
2023/06/24 11:27:05;;;;;;;2.05;1.38;;;28.10;95.80;;;;;;5033052;28;20182;-63
2023/06/24 11:29:32;;;;;;;1.58;1.48;;;28.00;95.50;;;;;;5033051;28;20207;-62
2023/06/24 11:31:58;;;;;;;2.53;1.70;;;28.10;94.10;;;;;;5032849;28;20180;-62
2023/06/24 11:34:24;;;;;;;2.65;1.60;;;27.90;93.90;;;;;;5033130;28;20218;-62
2023/06/24 11:36:49;;;;;;;1.83;1.65;;;28.00;95.50;;;;;;5032809;28;20180;-62
2023/06/24 11:39:26;;;;;;;2.38;1.90;;;28.20;95.00;;;;;;5032833;28;20633;-62
2023/06/24 11:41:52;;;;;;;1.63;1.50;;;28.20;95.30;;;;;;5032792;28;20640;-62
2023/06/24 11:44:23;;;;;;;3.38;1.95;;;28.20;93.00;;;;;;5032930;28;20259;-62
2023/06/24 11:46:49;;;;;;;2.08;1.88;;;28.40;94.60;;;;;;5032929;28;20204;-63
2023/06/24 11:49:15;;;;;;;3.58;1.65;;;28.30;95.60;;;;;;5032682;28;20579;-64
2023/06/24 11:51:50;;;;;;;1.83;1.67;;;28.40;95.80;;;;;;5032883;28;20536;-63
2023/06/24 11:54:20;;;;;;;2.20;1.95;;;28.70;95.60;;;;;;5032978;28;20184;-63
2023/06/24 11:56:52;;;;;;;1.92;1.55;;;28.50;93.60;;;;;;5014646;28;20584;-62
2023/06/24 11:59:18;;;;;;;1.90;1.80;;;28.30;94.40;;;;;;5032666;28;20196;-62
2023/06/24 12:01:45;;;;;;;3.67;2.10;;;28.30;95.10;;;;;;5032512;28;20204;-62
2023/06/24 12:04:14;;;;;;;3.33;1.83;;;28.50;94.80;;;;;;5035424;28;20199;-62
2023/06/24 12:06:43;;;;;;;2.25;2.05;;;28.60;94.90;;;;;;5036453;28;20173;-62
2023/06/24 12:09:12;;;;;;;2.42;2.00;;;28.60;95.30;;;;;;5036305;28;20557;-62
2023/06/24 12:11:38;;;;;;;2.60;1.75;;;28.60;93.80;;;;;;5036271;28;20187;-62
2023/06/24 12:14:05;;;;;;;2.30;2.00;;;28.50;93.90;;;;;;5036136;28;20171;-62
2023/06/24 12:16:31;;;;;;;2.10;1.90;;;28.60;94.80;;;;;;5036281;28;20176;-62
2023/06/24 12:18:57;;;;;;;2.00;1.90;;;28.80;95.00;;;;;;5035895;28;20258;-62
2023/06/24 12:21:22;;;;;;;2.70;2.50;;;28.80;94.70;;;;;;5035892;28;20215;-63
2023/06/24 12:23:48;;;;;;;2.78;2.45;;;28.70;95.50;;;;;;5036212;28;20187;-62
2023/06/24 12:26:14;;;;;;;2.65;2.10;;;28.70;93.30;;;;;;5035955;28;20172;-62
2023/06/24 12:28:39;;;;;;;3.88;2.28;;;28.50;93.40;;;;;;5035812;28;20176;-63
2023/06/24 12:31:05;;;;;;;3.17;2.10;;;28.60;94.90;;;;;;5035735;28;20176;-62
2023/06/24 12:33:31;;;;;;;3.00;2.03;;;28.70;95.20;;;;;;5035925;28;20203;-63
2023/06/24 12:35:57;;;;;;;4.63;2.58;;;28.80;94.40;;;;;;5035841;28;20641;-63
2023/06/24 12:38:22;;;;;;;3.85;2.95;;;28.70;92.80;;;;;;5035745;28;20170;-63
2023/06/24 12:40:48;;;;;;;3.28;2.40;;;28.60;93.80;;;;;;5035735;28;20184;-62
2023/06/24 12:43:14;;;;;;;3.83;2.42;;;28.70;95.00;;;;;;5035509;28;20257;-62
2023/06/24 12:45:43;;;;;;;5.38;2.45;;;28.60;93.70;;;;;;5035888;28;20184;-62
2023/06/24 12:48:09;;;;;;;5.40;2.42;;;28.70;94.20;;;;;;5035834;28;20180;-62